KWWR/WWR METAR and TAF weather

Enter ICAO airport designator
Station Type Date Time Source
KWWR METAR 2020/07/11 17:35 UTC NOAA

KWWR 111735Z AUTO 19006KT 10SM CLR 34/20 A3005 RMK AO2


Station Type Date Time Source
KWWR Decoded METAR 2020/07/11 17:35 UTC NOAA

Woodward, West Woodward Airport, OK, United States (KWWR) 36-26-12N 099-31-16W 667M
Jul 11, 2020 - 01:35 PM EDT / 2020.07.11 1735 UTC
Wind: from the S (190 degrees) at 7 MPH (6 KT):0
Visibility: 10 mile(s):0
Sky conditions: clear
Temperature: 93 F (34 C)
Heat index: 96.8 F (36.0 C):1
Dew Point: 68 F (20 C)
Relative Humidity: 43%
Pressure (altimeter): 30.05 in. Hg (1017 hPa)
ob: KWWR 111735Z AUTO 19006KT 10SM CLR 34/20 A3005 RMK AO2
cycle: 17

Station Type Date Time Source
KWWR TAF 2020/07/11 18:42 UTC NOAA

TAF KWWR 111739Z 1118/1218 15007KT P6SM SCT060
FM120000 15011KT P6SM VCTS BKN080CB
TEMPO 1201/1205 VRB40KT 2SM +TSRA OVC025CB
FM120600 06012KT P6SM BKN250

Example: see airport list